createdAt,value
2019-05-02T00:01:42.238Z,22.63
2019-05-02T00:04:12.424Z,23.47
2019-05-02T00:06:38.197Z,23.40
2019-05-02T00:09:09.074Z,22.50
2019-05-02T00:11:35.248Z,22.37
2019-05-02T00:14:01.923Z,21.50
2019-05-02T00:16:28.122Z,21.93
2019-05-02T00:18:54.480Z,21.63
2019-05-02T00:21:20.584Z,21.87
2019-05-02T00:23:46.606Z,21.60
2019-05-02T00:26:12.833Z,21.97
2019-05-02T00:28:43.018Z,21.93
2019-05-02T00:31:11.507Z,21.93
2019-05-02T00:33:35.956Z,22.03
2019-05-02T00:36:02.236Z,21.33
2019-05-02T00:38:33.318Z,22.47
2019-05-02T00:40:57.447Z,23.47
2019-05-02T00:43:29.075Z,21.20
2019-05-02T00:45:55.031Z,23.93
2019-05-02T00:48:23.257Z,23.80
2019-05-02T00:50:50.650Z,26.93
2019-05-02T00:53:17.218Z,25.67
2019-05-02T00:55:43.231Z,25.30
2019-05-02T00:58:09.257Z,24.53
2019-05-02T01:00:35.789Z,24.43
2019-05-02T01:03:01.770Z,27.67
2019-05-02T01:05:27.936Z,27.30
2019-05-02T01:07:56.056Z,24.77
2019-05-02T01:10:22.505Z,25.57
2019-05-02T01:12:48.669Z,25.27
2019-05-02T01:15:14.705Z,24.87
2019-05-02T01:17:40.812Z,25.77
2019-05-02T01:20:07.453Z,25.27
2019-05-02T01:22:33.518Z,28.37
2019-05-02T01:25:00.726Z,28.27
2019-05-02T01:27:26.683Z,25.73
2019-05-02T01:29:52.975Z,26.90
2019-05-02T01:32:19.115Z,26.10
2019-05-02T01:34:49.109Z,25.53
2019-05-02T01:37:20.979Z,28.10
2019-05-02T01:40:01.335Z,26.63
2019-05-02T01:42:39.300Z,26.93
2019-05-02T01:44:55.326Z,28.73
2019-05-02T01:47:21.350Z,26.57
2019-05-02T01:49:47.371Z,27.83
2019-05-02T01:52:13.500Z,26.20
2019-05-02T01:54:40.653Z,26.93
2019-05-02T01:57:08.762Z,26.13
2019-05-02T01:59:35.764Z,25.80
2019-05-02T02:02:01.992Z,24.53
2019-05-02T02:04:28.116Z,26.90
2019-05-02T02:06:54.448Z,27.93
2019-05-02T02:09:20.471Z,29.87
2019-05-02T02:11:46.562Z,25.27
2019-05-02T02:14:16.136Z,24.13
2019-05-02T02:16:40.689Z,25.17
2019-05-02T02:19:07.016Z,27.43
2019-05-02T02:21:33.513Z,28.37
2019-05-02T02:23:59.578Z,29.10
2019-05-02T02:26:25.595Z,28.97
2019-05-02T02:28:51.926Z,28.27
2019-05-02T02:31:18.541Z,27.07
2019-05-02T02:33:48.033Z,28.17
2019-05-02T02:36:12.562Z,29.50
2019-05-02T02:38:38.789Z,28.67
2019-05-02T02:41:06.518Z,28.27
2019-05-02T02:43:34.884Z,28.33
2019-05-02T02:46:01.479Z,26.87
2019-05-02T02:48:27.502Z,27.00
2019-05-02T02:50:53.538Z,29.00
2019-05-02T02:53:24.219Z,27.23
2019-05-02T02:55:47.569Z,27.83
2019-05-02T02:58:13.617Z,28.17
2019-05-02T03:00:41.440Z,27.23
2019-05-02T03:03:07.614Z,28.07
2019-05-02T03:05:33.647Z,27.20
2019-05-02T03:08:05.466Z,29.57
2019-05-02T03:10:27.828Z,28.47
2019-05-02T03:12:54.268Z,29.07
2019-05-02T03:15:21.126Z,27.40
2019-05-02T03:17:48.475Z,28.03
2019-05-02T03:20:14.460Z,28.17
2019-05-02T03:22:41.929Z,29.33
2019-05-02T03:25:08.893Z,30.10
2019-05-02T03:27:37.367Z,28.73
2019-05-02T03:30:04.223Z,28.97
2019-05-02T03:32:35.027Z,27.50
2019-05-02T03:34:58.401Z,30.03
2019-05-02T03:37:24.524Z,29.03
2019-05-02T03:39:57.219Z,30.90
2019-05-02T03:42:19.218Z,29.90
2019-05-02T03:44:55.015Z,28.77
2019-05-02T03:47:13.975Z,29.60
2019-05-02T03:49:47.825Z,28.13
2019-05-02T03:52:08.338Z,28.13
2019-05-02T03:54:34.670Z,28.40
2019-05-02T03:57:00.936Z,28.50
2019-05-02T03:59:37.544Z,27.40
2019-05-02T04:01:57.143Z,29.60
2019-05-02T04:04:23.286Z,28.93
2019-05-02T04:06:55.081Z,28.83
2019-05-02T04:09:39.057Z,28.73
2019-05-02T04:12:03.347Z,30.60
2019-05-02T04:14:38.075Z,32.20
2019-05-02T04:16:57.797Z,33.53
2019-05-02T04:19:28.737Z,36.03
2019-05-02T04:21:55.226Z,32.57
2019-05-02T04:24:24.115Z,32.63
2019-05-02T04:26:53.921Z,32.93
2019-05-02T04:29:24.393Z,32.00
2019-05-02T04:31:47.508Z,34.70
2019-05-02T04:34:15.294Z,33.37
2019-05-02T04:36:45.997Z,33.77
2019-05-02T04:39:15.095Z,34.90
2019-05-02T04:41:39.176Z,34.10
2019-05-02T04:44:09.124Z,34.50
2019-05-02T04:46:34.319Z,33.83
2019-05-02T04:49:00.311Z,34.10
2019-05-02T04:51:30.839Z,37.20
2019-05-02T04:53:54.157Z,37.07
2019-05-02T04:56:20.144Z,36.53
2019-05-02T04:58:48.998Z,37.93
2019-05-02T05:01:15.207Z,38.13
2019-05-02T05:03:41.249Z,37.63
2019-05-02T05:06:12.165Z,36.70
2019-05-02T05:08:35.228Z,38.87
2019-05-02T05:11:01.422Z,35.40
2019-05-02T05:13:29.075Z,36.93
2019-05-02T05:15:57.361Z,37.77
2019-05-02T05:18:23.541Z,35.57
2019-05-02T05:20:53.242Z,38.60
2019-05-02T05:23:21.373Z,36.87
2019-05-02T05:25:47.903Z,37.43
2019-05-02T05:28:14.389Z,38.70
2019-05-02T05:30:45.062Z,35.40
2019-05-02T05:33:10.247Z,38.10
2019-05-02T05:35:38.419Z,37.77
2019-05-02T05:38:04.418Z,39.17
2019-05-02T05:40:32.059Z,35.57
2019-05-02T05:43:02.738Z,39.13
2019-05-02T05:45:27.970Z,40.43
2019-05-02T05:47:57.567Z,38.17
2019-05-02T05:50:22.116Z,38.27
2019-05-02T05:52:48.132Z,42.10
2019-05-02T05:55:20.437Z,38.70
2019-05-02T05:57:42.331Z,40.47
2019-05-02T06:00:15.973Z,39.43
2019-05-02T06:02:52.347Z,42.83
2019-05-02T06:05:05.365Z,39.37
2019-05-02T06:07:33.662Z,39.63
2019-05-02T06:10:02.170Z,38.83
2019-05-02T06:12:30.070Z,39.30
2019-05-02T06:15:01.082Z,43.97
2019-05-02T06:17:28.315Z,38.37
2019-05-02T06:19:53.539Z,39.60
2019-05-02T06:22:24.302Z,39.60
2019-05-02T06:24:50.841Z,37.67
2019-05-02T06:27:16.305Z,41.57
2019-05-02T06:29:43.525Z,38.67
2019-05-02T06:32:13.998Z,38.43
2019-05-02T06:34:39.697Z,43.60
2019-05-02T06:37:08.231Z,43.30
2019-05-02T06:39:34.099Z,39.33
2019-05-02T06:42:00.071Z,40.90
2019-05-02T06:44:26.065Z,39.43
2019-05-02T06:46:52.025Z,40.63
2019-05-02T06:49:18.097Z,42.53
2019-05-02T06:51:44.215Z,38.73
2019-05-02T06:54:10.445Z,40.93
2019-05-02T06:56:36.491Z,39.50
2019-05-02T06:59:02.690Z,41.80
2019-05-02T07:01:28.817Z,38.33
2019-05-02T07:03:54.842Z,41.80
2019-05-02T07:06:21.141Z,37.90
2019-05-02T07:08:47.443Z,35.77
2019-05-02T07:11:13.725Z,36.53
2019-05-02T07:13:42.165Z,33.80
2019-05-02T07:16:10.338Z,35.17
2019-05-02T07:18:35.685Z,36.10
2019-05-02T07:21:02.036Z,35.43
2019-05-02T07:23:28.039Z,36.23
2019-05-02T07:25:54.060Z,36.57
2019-05-02T07:28:20.081Z,37.17
2019-05-02T07:30:46.206Z,36.07
2019-05-02T07:33:12.169Z,37.53
2019-05-02T07:35:38.258Z,39.67
2019-05-02T07:38:06.571Z,39.57
2019-05-02T07:40:32.864Z,37.07
2019-05-02T07:42:58.879Z,38.10
2019-05-02T07:45:24.903Z,38.23
2019-05-02T07:47:50.868Z,33.47
2019-05-02T07:50:17.186Z,36.20
2019-05-02T07:52:43.179Z,39.03
2019-05-02T07:55:10.272Z,35.80
2019-05-02T07:57:36.567Z,31.77
2019-05-02T08:00:10.769Z,34.20
2019-05-02T08:02:37.151Z,38.33
2019-05-02T08:05:04.246Z,33.43
2019-05-02T08:07:34.152Z,35.30
2019-05-02T08:09:58.343Z,35.67
2019-05-02T08:12:24.360Z,33.80
2019-05-02T08:14:50.387Z,33.47
2019-05-02T08:17:19.116Z,33.57
2019-05-02T08:19:44.681Z,34.17
2019-05-02T08:22:13.494Z,33.93
2019-05-02T08:24:39.330Z,34.57
2019-05-02T08:27:06.027Z,37.27
2019-05-02T08:29:32.050Z,33.00
2019-05-02T08:31:58.175Z,32.63
2019-05-02T08:34:24.319Z,32.87
2019-05-02T08:36:50.323Z,33.13
2019-05-02T08:39:16.551Z,32.00
2019-05-02T08:41:42.574Z,35.83
2019-05-02T08:44:08.802Z,31.65
2019-05-02T08:46:34.823Z,34.53
2019-05-02T08:49:00.947Z,33.53
2019-05-02T08:51:27.183Z,33.88
2019-05-02T08:53:56.751Z,36.13
2019-05-02T08:56:21.698Z,32.20
2019-05-02T08:58:49.965Z,35.00
2019-05-02T09:01:16.180Z,31.12
2019-05-02T09:03:54.808Z,31.30
2019-05-02T09:06:29.989Z,30.33
2019-05-02T09:08:56.366Z,29.12
2019-05-02T09:11:22.490Z,28.33
2019-05-02T09:13:48.911Z,30.75
2019-05-02T09:16:14.954Z,30.30
2019-05-02T09:18:50.585Z,28.45
2019-05-02T09:21:09.039Z,26.60
2019-05-02T09:23:37.016Z,26.45
2019-05-02T09:26:03.645Z,27.43
2019-05-02T09:28:29.776Z,27.83
2019-05-02T09:30:57.430Z,27.37
2019-05-02T09:33:23.779Z,26.67
2019-05-02T09:35:51.580Z,26.33
2019-05-02T09:38:17.762Z,26.75
2019-05-02T09:40:47.177Z,26.20
2019-05-02T09:43:12.284Z,27.67
2019-05-02T09:45:41.277Z,27.67
2019-05-02T09:48:08.210Z,25.77
2019-05-02T09:50:38.195Z,24.77
2019-05-02T09:53:03.833Z,26.05
2019-05-02T09:55:31.796Z,23.47
2019-05-02T09:57:57.915Z,23.07
2019-05-02T10:00:26.787Z,23.43
2019-05-02T10:02:54.365Z,22.27
2019-05-02T10:05:20.594Z,20.65
2019-05-02T10:07:48.583Z,21.33
2019-05-02T10:10:15.199Z,21.73
2019-05-02T10:12:42.732Z,21.15
2019-05-02T10:15:13.179Z,20.20
2019-05-02T10:17:42.892Z,20.37
2019-05-02T10:20:08.168Z,19.52
2019-05-02T10:22:39.349Z,20.72
2019-05-02T10:25:04.543Z,19.90
2019-05-02T10:27:32.251Z,18.32
2019-05-02T10:30:08.088Z,16.30
2019-05-02T10:32:26.501Z,15.45
2019-05-02T10:34:56.704Z,17.40
2019-05-02T10:37:21.728Z,18.23
2019-05-02T10:39:48.054Z,19.92
2019-05-02T10:42:14.073Z,17.07
2019-05-02T10:44:40.096Z,16.95
2019-05-02T10:47:06.529Z,16.52
2019-05-02T10:49:32.654Z,18.98
2019-05-02T10:51:58.675Z,18.40
2019-05-02T10:54:27.944Z,18.10
2019-05-02T10:56:52.872Z,18.02
2019-05-02T10:59:18.999Z,18.02
2019-05-02T11:01:45.021Z,20.25
2019-05-02T11:04:12.903Z,20.23
2019-05-02T11:06:42.562Z,17.45
2019-05-02T11:09:09.025Z,19.52
2019-05-02T11:11:35.357Z,17.07
2019-05-02T11:14:05.613Z,19.20
2019-05-02T11:16:29.351Z,18.07
2019-05-02T11:18:55.473Z,18.20
2019-05-02T11:21:22.902Z,15.05
2019-05-02T11:23:49.261Z,23.83
2019-05-02T11:26:23.245Z,16.23
2019-05-02T11:28:43.457Z,23.80
2019-05-02T11:31:10.215Z,18.05
2019-05-02T11:33:37.775Z,51.48
2019-05-02T11:36:03.980Z,15.63
2019-05-02T11:38:38.803Z,15.32
2019-05-02T11:40:59.446Z,15.00
2019-05-02T11:43:25.529Z,14.18
2019-05-02T11:45:54.159Z,15.65
2019-05-02T11:48:19.917Z,13.75
2019-05-02T11:50:46.059Z,17.20
2019-05-02T11:53:24.869Z,13.72
2019-05-02T11:55:41.981Z,13.80
2019-05-02T11:58:10.127Z,12.98
2019-05-02T12:00:39.666Z,13.80
2019-05-02T12:03:04.056Z,14.50
2019-05-02T12:05:31.837Z,14.73
2019-05-02T12:08:00.800Z,14.38
2019-05-02T12:10:28.037Z,14.38
2019-05-02T12:12:54.481Z,13.25
2019-05-02T12:15:21.696Z,11.93
2019-05-02T12:17:47.870Z,16.00
2019-05-02T12:20:14.464Z,15.08
2019-05-02T12:22:41.958Z,14.75
2019-05-02T12:25:08.394Z,13.20
2019-05-02T12:27:34.623Z,13.22
2019-05-02T12:30:03.119Z,12.23
2019-05-02T12:32:29.229Z,13.38
2019-05-02T12:34:55.258Z,15.38
2019-05-02T12:37:21.944Z,14.60
2019-05-02T12:39:48.073Z,13.62
2019-05-02T12:42:14.517Z,12.43
2019-05-02T12:44:42.591Z,11.68
2019-05-02T12:47:09.051Z,14.10
2019-05-02T12:49:35.292Z,13.18
2019-05-02T12:52:01.825Z,13.20
2019-05-02T12:54:29.065Z,14.55
2019-05-02T12:56:55.088Z,14.95
2019-05-02T12:59:22.544Z,14.38
2019-05-02T13:01:48.678Z,14.68
2019-05-02T13:04:14.697Z,12.63
2019-05-02T13:06:42.190Z,14.80
2019-05-02T13:09:09.743Z,14.87
2019-05-02T13:11:36.732Z,14.45
2019-05-02T13:14:04.423Z,13.35
2019-05-02T13:16:30.744Z,13.75
2019-05-02T13:19:03.027Z,14.73
2019-05-02T13:21:38.728Z,13.05
2019-05-02T13:23:54.445Z,13.20
2019-05-02T13:26:25.001Z,15.00
2019-05-02T13:28:48.641Z,14.10
2019-05-02T13:31:15.176Z,15.13
2019-05-02T13:33:42.794Z,15.28
2019-05-02T13:36:29.646Z,13.00
2019-05-02T13:38:55.771Z,13.95
2019-05-02T13:41:22.690Z,12.00
2019-05-02T13:43:48.751Z,13.25
2019-05-02T13:46:14.867Z,12.88
2019-05-02T13:48:42.899Z,13.32
2019-05-02T13:51:09.267Z,13.00
2019-05-02T13:53:35.394Z,12.80
2019-05-02T13:56:02.106Z,14.50
2019-05-02T13:58:29.149Z,13.70
2019-05-02T14:00:56.632Z,14.63
2019-05-02T14:03:22.747Z,13.95
2019-05-02T14:05:51.767Z,12.58
2019-05-02T14:08:17.059Z,12.10
2019-05-02T14:10:43.255Z,13.25
2019-05-02T14:13:09.411Z,12.13
2019-05-02T14:15:35.535Z,11.30
2019-05-02T14:18:02.508Z,11.12
2019-05-02T14:20:28.692Z,10.60
2019-05-02T14:22:55.026Z,12.82
2019-05-02T14:25:22.402Z,10.53
2019-05-02T14:27:52.404Z,12.20
2019-05-02T14:30:17.129Z,12.95
2019-05-02T14:32:43.533Z,12.15
2019-05-02T14:35:11.813Z,10.60
2019-05-02T14:37:37.856Z,10.40
2019-05-02T14:40:06.266Z,10.50
2019-05-02T14:42:32.337Z,11.50
2019-05-02T14:45:08.878Z,10.13
2019-05-02T14:47:26.940Z,11.93
2019-05-02T14:49:56.736Z,12.43
2019-05-02T14:52:22.132Z,12.10
2019-05-02T14:54:48.352Z,9.80
2019-05-02T14:57:17.036Z,12.25
2019-05-02T14:59:42.906Z,11.60
2019-05-02T15:02:09.423Z,11.80
2019-05-02T15:04:38.089Z,11.75
2019-05-02T15:07:05.068Z,12.60
2019-05-02T15:09:32.749Z,11.75
2019-05-02T15:11:59.258Z,12.58
2019-05-02T15:14:32.946Z,11.22
2019-05-02T15:16:59.822Z,10.23
2019-05-02T15:19:26.148Z,11.78
2019-05-02T15:21:55.861Z,11.53
2019-05-02T15:24:20.523Z,13.05
2019-05-02T15:26:46.954Z,12.30
2019-05-02T15:29:19.650Z,10.88
2019-05-02T15:31:42.071Z,11.73
2019-05-02T15:34:08.508Z,12.05
2019-05-02T15:36:37.128Z,10.28
2019-05-02T15:41:34.451Z,11.73
2019-05-02T15:44:01.987Z,9.80
2019-05-02T15:46:28.416Z,11.80
2019-05-02T15:48:57.090Z,11.38
2019-05-02T15:51:23.093Z,12.03
2019-05-02T15:54:01.917Z,12.45
2019-05-02T15:56:20.419Z,12.55
2019-05-02T15:58:45.628Z,12.65
2019-05-02T16:01:12.027Z,11.55
2019-05-02T16:03:43.018Z,11.28
2019-05-02T16:06:06.568Z,10.48
2019-05-02T16:08:32.793Z,10.63
2019-05-02T16:10:58.814Z,11.30
2019-05-02T16:13:24.838Z,10.28
2019-05-02T16:15:52.579Z,12.13
2019-05-02T16:18:18.726Z,10.93
2019-05-02T16:20:48.716Z,9.88
2019-05-02T16:23:13.144Z,9.55
2019-05-02T16:25:39.153Z,10.00
2019-05-02T16:28:06.174Z,9.75
2019-05-02T16:30:32.494Z,9.85
2019-05-02T16:32:58.989Z,9.43
2019-05-02T16:35:25.289Z,8.88
2019-05-02T16:37:55.860Z,8.30
2019-05-02T16:40:22.240Z,8.53
2019-05-02T16:42:49.412Z,9.03
2019-05-02T16:45:16.558Z,9.03
2019-05-02T16:47:42.854Z,9.33
2019-05-02T16:50:12.041Z,9.20
2019-05-02T16:52:42.517Z,9.60
2019-05-02T16:55:06.888Z,9.70
2019-05-02T16:57:35.169Z,8.87
2019-05-02T17:00:06.145Z,8.43
2019-05-02T17:02:32.571Z,8.73
2019-05-02T17:05:00.132Z,9.80
2019-05-02T17:07:26.627Z,8.53
2019-05-02T17:09:52.837Z,8.80
2019-05-02T17:12:18.981Z,9.63
2019-05-02T17:14:53.439Z,9.93
2019-05-02T17:17:13.160Z,8.80
2019-05-02T17:19:39.400Z,8.40
2019-05-02T17:22:07.050Z,10.10
2019-05-02T17:24:33.188Z,8.50
2019-05-02T17:26:59.209Z,9.83
2019-05-02T17:29:25.335Z,8.37
2019-05-02T17:31:57.355Z,7.90
2019-05-02T17:34:24.417Z,8.63
2019-05-02T17:36:48.627Z,9.37
2019-05-02T17:39:14.856Z,8.40
2019-05-02T17:41:42.267Z,8.60
2019-05-02T17:44:12.819Z,9.73
2019-05-02T17:46:39.156Z,9.43
2019-05-02T17:49:04.887Z,10.27
2019-05-02T17:51:33.988Z,9.93
2019-05-02T17:53:59.182Z,10.37
2019-05-02T17:56:26.436Z,11.37
2019-05-02T17:58:54.141Z,10.57
2019-05-02T18:01:21.833Z,10.27
2019-05-02T18:03:47.984Z,10.73
2019-05-02T18:06:17.234Z,10.87
2019-05-02T18:08:46.361Z,10.60
2019-05-02T18:11:10.228Z,10.60
2019-05-02T18:13:37.808Z,11.17
2019-05-02T18:16:07.771Z,11.03
2019-05-02T18:18:37.431Z,10.73
2019-05-02T18:21:02.089Z,10.73
2019-05-02T18:23:28.204Z,10.73
2019-05-02T18:25:57.387Z,11.67
2019-05-02T18:28:26.379Z,10.67
2019-05-02T18:30:52.342Z,10.97
2019-05-02T18:33:18.587Z,11.43
2019-05-02T18:35:46.906Z,11.70
2019-05-02T18:38:16.010Z,11.60
2019-05-02T18:40:42.800Z,12.03
2019-05-02T18:43:08.823Z,11.83
2019-05-02T18:45:35.097Z,11.60
2019-05-02T18:48:05.196Z,11.13
2019-05-02T18:50:32.086Z,11.30
2019-05-02T18:53:01.073Z,11.67
2019-05-02T18:55:27.742Z,11.40
2019-05-02T18:57:57.057Z,12.33
2019-05-02T19:00:23.025Z,10.50
2019-05-02T19:02:49.396Z,9.87
2019-05-02T19:05:19.205Z,10.60
2019-05-02T19:07:47.410Z,10.30
2019-05-02T19:10:12.985Z,9.77
2019-05-02T19:12:39.196Z,10.27
2019-05-02T19:15:07.158Z,9.97
2019-05-02T19:17:38.518Z,9.90
2019-05-02T19:20:06.084Z,10.37
2019-05-02T19:22:29.661Z,9.43
2019-05-02T19:24:55.887Z,10.30
2019-05-02T19:27:25.507Z,9.30
2019-05-02T19:29:51.705Z,9.40
2019-05-02T19:32:25.522Z,10.07
2019-05-02T19:34:46.530Z,9.90
2019-05-02T19:37:12.760Z,9.63
2019-05-02T19:39:47.212Z,9.90
2019-05-02T19:42:07.879Z,9.27
2019-05-02T19:44:34.321Z,9.13
2019-05-02T19:47:02.547Z,9.90
2019-05-02T19:49:29.739Z,9.70
2019-05-02T19:51:58.333Z,9.43
2019-05-02T19:54:24.443Z,9.93
2019-05-02T19:56:52.374Z,9.73
2019-05-02T19:59:24.558Z,9.07
2019-05-02T20:01:47.256Z,10.00
2019-05-02T20:04:13.343Z,9.07
2019-05-02T20:06:41.713Z,9.87
2019-05-02T20:09:08.499Z,9.53
2019-05-02T20:11:36.331Z,11.40
2019-05-02T20:14:09.075Z,10.23
2019-05-02T20:19:23.183Z,14.83
2019-05-02T20:21:45.729Z,14.13
2019-05-02T20:24:15.236Z,15.93
2019-05-02T20:26:41.658Z,17.17
2019-05-02T20:29:07.779Z,19.40
2019-05-02T20:31:34.005Z,19.80
2019-05-02T20:34:02.394Z,19.60
2019-05-02T20:36:28.419Z,21.23
2019-05-02T20:38:54.634Z,22.07
2019-05-02T20:41:22.438Z,22.73
2019-05-02T20:43:48.622Z,24.13
2019-05-02T20:46:14.749Z,24.43
2019-05-02T20:48:41.828Z,27.07
2019-05-02T20:51:08.140Z,27.83
2019-05-02T20:53:34.428Z,27.27
2019-05-02T20:56:01.785Z,30.63
2019-05-02T20:58:28.239Z,29.07
2019-05-02T21:01:05.532Z,29.70
2019-05-02T21:03:22.641Z,29.23
2019-05-02T21:05:48.765Z,30.80
2019-05-02T21:08:14.992Z,28.83
2019-05-02T21:10:41.722Z,29.23
2019-05-02T21:13:07.858Z,29.00
2019-05-02T21:15:34.073Z,30.23
2019-05-02T21:18:02.166Z,31.77
2019-05-02T21:20:28.485Z,28.10
2019-05-02T21:22:54.577Z,29.43
2019-05-02T21:25:23.007Z,30.80
2019-05-02T21:27:48.807Z,29.23
2019-05-02T21:30:18.617Z,30.70
2019-05-02T21:32:44.948Z,30.47
2019-05-02T21:35:11.913Z,31.20
2019-05-02T21:37:39.245Z,29.97
2019-05-02T21:40:06.694Z,33.33
2019-05-02T21:42:32.826Z,31.03
2019-05-02T21:44:58.852Z,30.43
2019-05-02T21:47:24.975Z,30.30
2019-05-02T21:49:52.485Z,31.17
2019-05-02T21:52:18.613Z,32.03
2019-05-02T21:54:44.808Z,30.20
2019-05-02T21:57:12.123Z,32.97
2019-05-02T21:59:38.468Z,30.90
2019-05-02T22:02:05.063Z,32.83
2019-05-02T22:04:31.778Z,30.43
2019-05-02T22:06:58.075Z,31.97
2019-05-02T22:09:24.098Z,30.57
2019-05-02T22:11:51.999Z,30.53
2019-05-02T22:14:18.802Z,32.03
2019-05-02T22:16:44.826Z,28.87
2019-05-02T22:19:10.850Z,25.10
2019-05-02T22:21:37.075Z,23.37
2019-05-02T22:24:11.195Z,25.40
2019-05-02T22:26:32.761Z,25.20
2019-05-02T22:28:59.027Z,25.13
2019-05-02T22:31:25.238Z,19.70
2019-05-02T22:33:52.818Z,17.93
2019-05-02T22:36:21.814Z,13.60
2019-05-02T22:38:48.355Z,14.30
2019-05-02T22:41:14.372Z,12.87
2019-05-02T22:43:42.170Z,12.20
2019-05-02T22:46:08.364Z,11.47
2019-05-02T22:48:34.490Z,10.80
2019-05-02T22:51:00.514Z,10.80
2019-05-02T22:53:26.546Z,10.60
2019-05-02T22:55:52.769Z,10.07
2019-05-02T22:58:19.091Z,9.87
2019-05-02T23:00:45.213Z,9.50
2019-05-02T23:03:12.523Z,8.67
2019-05-02T23:05:38.691Z,8.93
2019-05-02T23:08:04.721Z,9.10
2019-05-02T23:10:32.576Z,8.80
2019-05-02T23:12:58.971Z,9.13
2019-05-02T23:15:25.137Z,8.93
2019-05-02T23:17:52.268Z,8.93
2019-05-02T23:20:18.415Z,9.10
2019-05-02T23:22:44.436Z,8.60
2019-05-02T23:25:11.651Z,8.30
2019-05-02T23:27:39.145Z,7.97
2019-05-02T23:30:08.033Z,9.00
2019-05-02T23:32:34.162Z,7.80
2019-05-02T23:35:01.945Z,7.87
2019-05-02T23:37:28.175Z,8.03
2019-05-02T23:39:54.275Z,7.63
2019-05-02T23:42:21.827Z,7.80
2019-05-02T23:44:48.066Z,7.80
2019-05-02T23:47:14.089Z,7.80
2019-05-02T23:49:42.577Z,7.57
2019-05-02T23:52:08.754Z,8.53
2019-05-02T23:54:34.828Z,8.23
2019-05-02T23:57:00.843Z,7.90
2019-05-02T23:59:26.846Z,8.20
